Decoded Metar for LFKC (CALVI in CORSE ISL.) (IATA:CLY) | Meteo·Mobile Aviation Weather
aviador You're here:

LFKC Decoded Metar

CALVI in CORSE ISL.
Report Time2019-02-22 00:30:00
UTC Time2019-02-22 00:51:45
Flight Rules vfr VFR
WindVRB at 03 kt
Visibility9999 m
Phenomena:N/A
Clouds:Broken 035 Hf
Expected CloudBase > 800 ft AGL from Temp-Dew spread
Ceiling3,500 ft
Temp06°C (ISA -9)
Dew Point04°C (87% RH)
AAT3.6°C
QNH1028 hPa
Density Alt-1,247 ft
Elevation190 ft
Report Wrong Elevation
Raw Report
LFKC 220030Z AUTO VRB03KT 9999 BKN035 06/04 Q1028=

Extra information for LFKC:More info

Metar Taf Metar & Taf Last 4 Metars F.Rules Stats Wind Profile Meteogram Temp Stats Airport Information Weather charts Add Link Nearby VenuesMetar ALERT Operation Metar Decoded Social comments